sensor_id;sensor_type;location;lat;lon;timestamp;P1;durP1;ratioP1;P2;durP2;ratioP2
24681;SDS011;12802;53.390;-2.328;2023-02-04T00:00:52;5.57;;;1.33;;
24681;SDS011;12802;53.390;-2.328;2023-02-04T00:03:18;2.63;;;1.30;;
24681;SDS011;12802;53.390;-2.328;2023-02-04T00:05:43;2.55;;;1.63;;
24681;SDS011;12802;53.390;-2.328;2023-02-04T00:08:09;3.78;;;1.42;;
24681;SDS011;12802;53.390;-2.328;2023-02-04T00:10:35;1.67;;;0.90;;
24681;SDS011;12802;53.390;-2.328;2023-02-04T00:13:01;1.90;;;1.00;;
24681;SDS011;12802;53.390;-2.328;2023-02-04T00:15:28;2.65;;;1.40;;
24681;SDS011;12802;53.390;-2.328;2023-02-04T00:17:54;2.20;;;1.00;;
24681;SDS011;12802;53.390;-2.328;2023-02-04T00:20:19;5.30;;;0.82;;
24681;SDS011;12802;53.390;-2.328;2023-02-04T00:22:46;2.88;;;0.88;;
24681;SDS011;12802;53.390;-2.328;2023-02-04T00:25:12;2.65;;;1.23;;
24681;SDS011;12802;53.390;-2.328;2023-02-04T00:27:38;5.47;;;1.58;;
24681;SDS011;12802;53.390;-2.328;2023-02-04T00:30:04;4.75;;;1.48;;
24681;SDS011;12802;53.390;-2.328;2023-02-04T00:32:30;3.38;;;0.73;;
24681;SDS011;12802;53.390;-2.328;2023-02-04T00:34:56;1.67;;;0.82;;
24681;SDS011;12802;53.390;-2.328;2023-02-04T00:37:24;6.82;;;1.10;;
24681;SDS011;12802;53.390;-2.328;2023-02-04T00:39:49;5.00;;;1.27;;
24681;SDS011;12802;53.390;-2.328;2023-02-04T00:42:15;1.73;;;0.85;;
24681;SDS011;12802;53.390;-2.328;2023-02-04T00:44:41;6.32;;;1.38;;
24681;SDS011;12802;53.390;-2.328;2023-02-04T00:47:07;1.77;;;0.98;;
24681;SDS011;12802;53.390;-2.328;2023-02-04T00:49:33;2.88;;;1.15;;
24681;SDS011;12802;53.390;-2.328;2023-02-04T00:51:59;2.67;;;1.40;;
24681;SDS011;12802;53.390;-2.328;2023-02-04T00:54:25;1.75;;;0.82;;
24681;SDS011;12802;53.390;-2.328;2023-02-04T00:56:51;3.70;;;1.73;;
24681;SDS011;12802;53.390;-2.328;2023-02-04T00:59:17;2.95;;;1.33;;
24681;SDS011;12802;53.390;-2.328;2023-02-04T01:01:42;3.10;;;1.30;;
24681;SDS011;12802;53.390;-2.328;2023-02-04T01:04:08;2.88;;;1.17;;
24681;SDS011;12802;53.390;-2.328;2023-02-04T01:06:34;7.80;;;1.73;;
24681;SDS011;12802;53.390;-2.328;2023-02-04T01:09:01;3.22;;;1.48;;
24681;SDS011;12802;53.390;-2.328;2023-02-04T01:11:28;2.53;;;1.33;;
24681;SDS011;12802;53.390;-2.328;2023-02-04T01:13:54;2.33;;;1.13;;
24681;SDS011;12802;53.390;-2.328;2023-02-04T01:16:19;2.22;;;1.15;;
24681;SDS011;12802;53.390;-2.328;2023-02-04T01:18:45;3.33;;;1.30;;
24681;SDS011;12802;53.390;-2.328;2023-02-04T01:21:11;1.55;;;0.85;;
24681;SDS011;12802;53.390;-2.328;2023-02-04T01:23:37;4.95;;;1.40;;
24681;SDS011;12802;53.390;-2.328;2023-02-04T01:26:03;4.10;;;1.48;;
24681;SDS011;12802;53.390;-2.328;2023-02-04T01:28:30;2.80;;;1.25;;
24681;SDS011;12802;53.390;-2.328;2023-02-04T01:30:56;2.70;;;1.38;;
24681;SDS011;12802;53.390;-2.328;2023-02-04T01:33:22;2.95;;;1.50;;
24681;SDS011;12802;53.390;-2.328;2023-02-04T01:35:49;7.88;;;1.42;;
24681;SDS011;12802;53.390;-2.328;2023-02-04T01:38:14;2.55;;;1.38;;
24681;SDS011;12802;53.390;-2.328;2023-02-04T01:40:40;6.82;;;1.50;;
24681;SDS011;12802;53.390;-2.328;2023-02-04T01:43:07;3.05;;;1.30;;
24681;SDS011;12802;53.390;-2.328;2023-02-04T01:45:33;9.07;;;1.55;;
24681;SDS011;12802;53.390;-2.328;2023-02-04T01:48:00;3.03;;;1.80;;
24681;SDS011;12802;53.390;-2.328;2023-02-04T01:50:28;5.25;;;1.42;;
24681;SDS011;12802;53.390;-2.328;2023-02-04T01:52:54;2.63;;;1.48;;
24681;SDS011;12802;53.390;-2.328;2023-02-04T01:55:21;1.85;;;0.88;;
24681;SDS011;12802;53.390;-2.328;2023-02-04T01:57:50;4.75;;;1.25;;
24681;SDS011;12802;53.390;-2.328;2023-02-04T02:00:21;1.92;;;0.95;;
24681;SDS011;12802;53.390;-2.328;2023-02-04T02:02:51;2.72;;;1.75;;
24681;SDS011;12802;53.390;-2.328;2023-02-04T02:05:26;1.65;;;0.98;;
24681;SDS011;12802;53.390;-2.328;2023-02-04T02:07:57;1.42;;;0.90;;
24681;SDS011;12802;53.390;-2.328;2023-02-04T02:10:24;1.73;;;1.38;;
24681;SDS011;12802;53.390;-2.328;2023-02-04T02:12:50;3.08;;;1.17;;
24681;SDS011;12802;53.390;-2.328;2023-02-04T02:15:18;1.63;;;0.85;;
24681;SDS011;12802;53.390;-2.328;2023-02-04T02:17:45;2.85;;;1.35;;
24681;SDS011;12802;53.390;-2.328;2023-02-04T02:20:12;1.15;;;0.98;;
24681;SDS011;12802;53.390;-2.328;2023-02-04T02:22:43;2.95;;;1.17;;
24681;SDS011;12802;53.390;-2.328;2023-02-04T02:25:22;6.88;;;1.10;;
24681;SDS011;12802;53.390;-2.328;2023-02-04T02:27:47;1.88;;;0.88;;
24681;SDS011;12802;53.390;-2.328;2023-02-04T02:30:14;2.25;;;1.15;;
24681;SDS011;12802;53.390;-2.328;2023-02-04T02:32:42;3.53;;;1.50;;
24681;SDS011;12802;53.390;-2.328;2023-02-04T02:35:09;5.72;;;1.25;;
24681;SDS011;12802;53.390;-2.328;2023-02-04T02:37:35;1.80;;;1.20;;
24681;SDS011;12802;53.390;-2.328;2023-02-04T02:40:02;1.90;;;0.90;;
24681;SDS011;12802;53.390;-2.328;2023-02-04T02:42:28;3.53;;;1.10;;
24681;SDS011;12802;53.390;-2.328;2023-02-04T02:44:55;1.38;;;0.70;;
24681;SDS011;12802;53.390;-2.328;2023-02-04T02:47:21;3.00;;;1.00;;
24681;SDS011;12802;53.390;-2.328;2023-02-04T02:49:49;1.67;;;1.10;;
24681;SDS011;12802;53.390;-2.328;2023-02-04T02:52:16;2.20;;;1.30;;
24681;SDS011;12802;53.390;-2.328;2023-02-04T02:54:43;2.42;;;1.13;;
24681;SDS011;12802;53.390;-2.328;2023-02-04T02:57:12;3.90;;;0.93;;
24681;SDS011;12802;53.390;-2.328;2023-02-04T02:59:46;1.73;;;1.00;;
24681;SDS011;12802;53.390;-2.328;2023-02-04T03:02:13;3.25;;;0.88;;
24681;SDS011;12802;53.390;-2.328;2023-02-04T03:04:48;3.65;;;1.20;;
24681;SDS011;12802;53.390;-2.328;2023-02-04T03:07:19;5.65;;;1.25;;
24681;SDS011;12802;53.390;-2.328;2023-02-04T03:09:46;3.38;;;1.33;;
24681;SDS011;12802;53.390;-2.328;2023-02-04T03:12:13;2.25;;;0.90;;
24681;SDS011;12802;53.390;-2.328;2023-02-04T03:14:39;2.10;;;1.00;;
24681;SDS011;12802;53.390;-2.328;2023-02-04T03:17:06;3.05;;;1.30;;
24681;SDS011;12802;53.390;-2.328;2023-02-04T03:19:33;3.63;;;1.85;;
24681;SDS011;12802;53.390;-2.328;2023-02-04T03:22:00;4.13;;;1.30;;
24681;SDS011;12802;53.390;-2.328;2023-02-04T03:24:28;6.15;;;1.52;;
24681;SDS011;12802;53.390;-2.328;2023-02-04T03:26:55;5.95;;;1.30;;
24681;SDS011;12802;53.390;-2.328;2023-02-04T03:29:21;5.22;;;1.10;;
24681;SDS011;12802;53.390;-2.328;2023-02-04T03:31:47;2.65;;;1.15;;
24681;SDS011;12802;53.390;-2.328;2023-02-04T03:34:12;3.25;;;1.42;;
24681;SDS011;12802;53.390;-2.328;2023-02-04T03:36:38;11.43;;;1.40;;
24681;SDS011;12802;53.390;-2.328;2023-02-04T03:39:04;3.90;;;1.52;;
24681;SDS011;12802;53.390;-2.328;2023-02-04T03:41:30;5.35;;;1.25;;
24681;SDS011;12802;53.390;-2.328;2023-02-04T03:43:55;2.00;;;0.95;;
24681;SDS011;12802;53.390;-2.328;2023-02-04T03:46:21;3.05;;;0.90;;
24681;SDS011;12802;53.390;-2.328;2023-02-04T03:48:48;1.55;;;0.80;;
24681;SDS011;12802;53.390;-2.328;2023-02-04T03:51:13;2.03;;;1.10;;
24681;SDS011;12802;53.390;-2.328;2023-02-04T03:53:39;4.05;;;0.90;;
24681;SDS011;12802;53.390;-2.328;2023-02-04T03:56:05;5.38;;;1.42;;
24681;SDS011;12802;53.390;-2.328;2023-02-04T03:58:31;2.55;;;1.23;;
24681;SDS011;12802;53.390;-2.328;2023-02-04T04:00:57;3.92;;;1.30;;
24681;SDS011;12802;53.390;-2.328;2023-02-04T04:03:23;3.78;;;1.00;;
24681;SDS011;12802;53.390;-2.328;2023-02-04T04:05:48;1.73;;;1.15;;
24681;SDS011;12802;53.390;-2.328;2023-02-04T04:08:14;1.70;;;0.82;;
24681;SDS011;12802;53.390;-2.328;2023-02-04T04:10:40;2.88;;;1.23;;
24681;SDS011;12802;53.390;-2.328;2023-02-04T04:13:06;2.35;;;1.10;;
24681;SDS011;12802;53.390;-2.328;2023-02-04T04:15:31;2.92;;;1.30;;
24681;SDS011;12802;53.390;-2.328;2023-02-04T04:17:57;3.60;;;1.38;;
24681;SDS011;12802;53.390;-2.328;2023-02-04T04:20:23;5.45;;;0.93;;
24681;SDS011;12802;53.390;-2.328;2023-02-04T04:22:50;2.45;;;0.70;;
24681;SDS011;12802;53.390;-2.328;2023-02-04T04:25:16;2.03;;;0.88;;
24681;SDS011;12802;53.390;-2.328;2023-02-04T04:27:42;2.60;;;1.23;;
24681;SDS011;12802;53.390;-2.328;2023-02-04T04:30:08;1.50;;;0.80;;
24681;SDS011;12802;53.390;-2.328;2023-02-04T04:32:35;2.53;;;0.88;;
24681;SDS011;12802;53.390;-2.328;2023-02-04T04:35:00;4.60;;;1.00;;
24681;SDS011;12802;53.390;-2.328;2023-02-04T04:37:26;1.20;;;0.77;;
24681;SDS011;12802;53.390;-2.328;2023-02-04T04:39:52;6.78;;;1.73;;
24681;SDS011;12802;53.390;-2.328;2023-02-04T04:42:18;4.57;;;1.08;;
24681;SDS011;12802;53.390;-2.328;2023-02-04T04:44:44;4.00;;;1.52;;
24681;SDS011;12802;53.390;-2.328;2023-02-04T04:47:09;3.13;;;0.80;;
24681;SDS011;12802;53.390;-2.328;2023-02-04T04:49:35;2.67;;;0.98;;
24681;SDS011;12802;53.390;-2.328;2023-02-04T04:52:01;5.80;;;0.77;;
24681;SDS011;12802;53.390;-2.328;2023-02-04T04:54:27;2.03;;;1.00;;
24681;SDS011;12802;53.390;-2.328;2023-02-04T04:56:52;3.65;;;0.70;;
24681;SDS011;12802;53.390;-2.328;2023-02-04T04:59:18;2.20;;;0.75;;
24681;SDS011;12802;53.390;-2.328;2023-02-04T05:01:44;3.50;;;0.80;;
24681;SDS011;12802;53.390;-2.328;2023-02-04T05:04:10;1.50;;;0.63;;
24681;SDS011;12802;53.390;-2.328;2023-02-04T05:06:36;1.08;;;0.73;;
24681;SDS011;12802;53.390;-2.328;2023-02-04T05:09:02;4.05;;;0.95;;
24681;SDS011;12802;53.390;-2.328;2023-02-04T05:11:28;4.55;;;0.95;;
24681;SDS011;12802;53.390;-2.328;2023-02-04T05:13:53;2.95;;;1.10;;
24681;SDS011;12802;53.390;-2.328;2023-02-04T05:16:19;4.03;;;1.23;;
24681;SDS011;12802;53.390;-2.328;2023-02-04T05:18:45;1.35;;;0.70;;
24681;SDS011;12802;53.390;-2.328;2023-02-04T05:21:11;2.47;;;0.93;;
24681;SDS011;12802;53.390;-2.328;2023-02-04T05:23:36;0.75;;;0.57;;
24681;SDS011;12802;53.390;-2.328;2023-02-04T05:26:02;1.65;;;0.60;;
24681;SDS011;12802;53.390;-2.328;2023-02-04T05:28:28;5.30;;;1.42;;
24681;SDS011;12802;53.390;-2.328;2023-02-04T05:30:54;1.13;;;0.80;;
24681;SDS011;12802;53.390;-2.328;2023-02-04T05:33:19;2.25;;;0.70;;
24681;SDS011;12802;53.390;-2.328;2023-02-04T05:35:45;2.40;;;0.82;;
24681;SDS011;12802;53.390;-2.328;2023-02-04T05:38:11;2.15;;;1.00;;
24681;SDS011;12802;53.390;-2.328;2023-02-04T05:40:36;2.58;;;0.90;;
24681;SDS011;12802;53.390;-2.328;2023-02-04T05:43:02;3.83;;;1.20;;
24681;SDS011;12802;53.390;-2.328;2023-02-04T05:45:29;4.28;;;0.38;;
24681;SDS011;12802;53.390;-2.328;2023-02-04T05:47:54;1.92;;;0.80;;
24681;SDS011;12802;53.390;-2.328;2023-02-04T05:50:20;3.65;;;0.77;;
24681;SDS011;12802;53.390;-2.328;2023-02-04T05:52:46;0.88;;;0.55;;
24681;SDS011;12802;53.390;-2.328;2023-02-04T05:55:12;1.00;;;0.63;;
24681;SDS011;12802;53.390;-2.328;2023-02-04T05:57:38;1.98;;;0.77;;
24681;SDS011;12802;53.390;-2.328;2023-02-04T06:00:04;1.90;;;0.57;;
24681;SDS011;12802;53.390;-2.328;2023-02-04T06:02:37;3.45;;;0.75;;
24681;SDS011;12802;53.390;-2.328;2023-02-04T06:05:02;3.78;;;1.13;;
24681;SDS011;12802;53.390;-2.328;2023-02-04T06:07:28;2.28;;;0.80;;
24681;SDS011;12802;53.390;-2.328;2023-02-04T06:09:54;1.23;;;0.70;;
24681;SDS011;12802;53.390;-2.328;2023-02-04T06:12:20;0.80;;;0.38;;
24681;SDS011;12802;53.390;-2.328;2023-02-04T06:14:46;5.13;;;1.35;;
24681;SDS011;12802;53.390;-2.328;2023-02-04T06:17:11;5.65;;;0.90;;
24681;SDS011;12802;53.390;-2.328;2023-02-04T06:19:37;2.83;;;1.10;;
24681;SDS011;12802;53.390;-2.328;2023-02-04T06:22:03;7.20;;;0.85;;
24681;SDS011;12802;53.390;-2.328;2023-02-04T06:24:28;1.17;;;0.77;;
24681;SDS011;12802;53.390;-2.328;2023-02-04T06:26:54;4.18;;;1.10;;
24681;SDS011;12802;53.390;-2.328;2023-02-04T06:29:20;1.08;;;0.63;;
24681;SDS011;12802;53.390;-2.328;2023-02-04T06:31:46;4.28;;;0.88;;
24681;SDS011;12802;53.390;-2.328;2023-02-04T06:34:13;2.95;;;1.00;;
24681;SDS011;12802;53.390;-2.328;2023-02-04T06:36:39;2.08;;;0.98;;
24681;SDS011;12802;53.390;-2.328;2023-02-04T06:39:05;6.35;;;0.93;;
24681;SDS011;12802;53.390;-2.328;2023-02-04T06:41:31;3.05;;;0.68;;
24681;SDS011;12802;53.390;-2.328;2023-02-04T06:43:57;4.03;;;0.80;;
24681;SDS011;12802;53.390;-2.328;2023-02-04T06:46:22;4.43;;;0.85;;
24681;SDS011;12802;53.390;-2.328;2023-02-04T06:48:48;2.00;;;0.95;;
24681;SDS011;12802;53.390;-2.328;2023-02-04T06:51:14;1.70;;;0.60;;
24681;SDS011;12802;53.390;-2.328;2023-02-04T06:53:40;1.50;;;0.60;;
24681;SDS011;12802;53.390;-2.328;2023-02-04T06:56:08;4.70;;;0.93;;
24681;SDS011;12802;53.390;-2.328;2023-02-04T06:58:35;6.82;;;1.38;;
24681;SDS011;12802;53.390;-2.328;2023-02-04T07:01:01;1.92;;;0.57;;
24681;SDS011;12802;53.390;-2.328;2023-02-04T07:03:27;1.13;;;0.77;;
24681;SDS011;12802;53.390;-2.328;2023-02-04T07:05:52;2.35;;;0.73;;
24681;SDS011;12802;53.390;-2.328;2023-02-04T07:08:18;1.48;;;0.77;;
24681;SDS011;12802;53.390;-2.328;2023-02-04T07:10:46;3.45;;;1.15;;
24681;SDS011;12802;53.390;-2.328;2023-02-04T07:13:12;2.85;;;1.20;;
24681;SDS011;12802;53.390;-2.328;2023-02-04T07:15:37;2.97;;;0.73;;
24681;SDS011;12802;53.390;-2.328;2023-02-04T07:18:03;2.08;;;0.80;;
24681;SDS011;12802;53.390;-2.328;2023-02-04T07:20:29;1.50;;;0.90;;
24681;SDS011;12802;53.390;-2.328;2023-02-04T07:22:54;1.55;;;0.43;;
24681;SDS011;12802;53.390;-2.328;2023-02-04T07:25:20;10.70;;;0.60;;
24681;SDS011;12802;53.390;-2.328;2023-02-04T07:27:46;1.50;;;0.47;;
24681;SDS011;12802;53.390;-2.328;2023-02-04T07:30:12;1.42;;;0.70;;
24681;SDS011;12802;53.390;-2.328;2023-02-04T07:32:38;1.25;;;0.70;;
24681;SDS011;12802;53.390;-2.328;2023-02-04T07:35:03;3.30;;;0.82;;
24681;SDS011;12802;53.390;-2.328;2023-02-04T07:37:30;1.88;;;0.52;;
24681;SDS011;12802;53.390;-2.328;2023-02-04T07:39:55;3.03;;;0.63;;
24681;SDS011;12802;53.390;-2.328;2023-02-04T07:42:21;1.45;;;0.60;;
24681;SDS011;12802;53.390;-2.328;2023-02-04T07:44:52;2.15;;;0.65;;
24681;SDS011;12802;53.390;-2.328;2023-02-04T07:47:18;6.15;;;0.98;;
24681;SDS011;12802;53.390;-2.328;2023-02-04T07:49:44;5.28;;;0.75;;
24681;SDS011;12802;53.390;-2.328;2023-02-04T07:52:10;5.10;;;0.70;;
24681;SDS011;12802;53.390;-2.328;2023-02-04T07:54:36;2.08;;;0.40;;
24681;SDS011;12802;53.390;-2.328;2023-02-04T07:57:02;2.05;;;0.77;;
24681;SDS011;12802;53.390;-2.328;2023-02-04T07:59:27;1.38;;;0.85;;
24681;SDS011;12802;53.390;-2.328;2023-02-04T08:01:53;3.63;;;0.93;;
24681;SDS011;12802;53.390;-2.328;2023-02-04T08:04:19;2.42;;;0.60;;
24681;SDS011;12802;53.390;-2.328;2023-02-04T08:06:45;3.42;;;0.45;;
24681;SDS011;12802;53.390;-2.328;2023-02-04T08:09:10;1.55;;;0.45;;
24681;SDS011;12802;53.390;-2.328;2023-02-04T08:11:36;2.72;;;0.63;;
24681;SDS011;12802;53.390;-2.328;2023-02-04T08:14:02;1.42;;;0.68;;
24681;SDS011;12802;53.390;-2.328;2023-02-04T08:16:27;3.40;;;0.90;;
24681;SDS011;12802;53.390;-2.328;2023-02-04T08:18:53;1.95;;;1.08;;
24681;SDS011;12802;53.390;-2.328;2023-02-04T08:21:19;9.05;;;0.93;;
24681;SDS011;12802;53.390;-2.328;2023-02-04T08:23:44;5.25;;;0.88;;
24681;SDS011;12802;53.390;-2.328;2023-02-04T08:26:11;1.95;;;0.93;;
24681;SDS011;12802;53.390;-2.328;2023-02-04T08:28:37;1.30;;;0.52;;
24681;SDS011;12802;53.390;-2.328;2023-02-04T08:31:06;7.13;;;1.10;;
24681;SDS011;12802;53.390;-2.328;2023-02-04T08:33:36;2.50;;;0.88;;
24681;SDS011;12802;53.390;-2.328;2023-02-04T08:36:03;2.40;;;0.80;;
24681;SDS011;12802;53.390;-2.328;2023-02-04T08:38:29;3.40;;;1.10;;
24681;SDS011;12802;53.390;-2.328;2023-02-04T08:40:55;10.45;;;1.33;;
24681;SDS011;12802;53.390;-2.328;2023-02-04T08:43:21;2.40;;;0.60;;
24681;SDS011;12802;53.390;-2.328;2023-02-04T08:45:47;3.50;;;0.95;;
24681;SDS011;12802;53.390;-2.328;2023-02-04T08:48:12;1.20;;;0.47;;
24681;SDS011;12802;53.390;-2.328;2023-02-04T08:50:38;1.50;;;0.65;;
24681;SDS011;12802;53.390;-2.328;2023-02-04T08:53:04;4.30;;;1.05;;
24681;SDS011;12802;53.390;-2.328;2023-02-04T08:55:29;4.55;;;0.52;;
24681;SDS011;12802;53.390;-2.328;2023-02-04T08:57:55;0.90;;;0.50;;
24681;SDS011;12802;53.390;-2.328;2023-02-04T09:00:23;2.00;;;0.85;;
24681;SDS011;12802;53.390;-2.328;2023-02-04T09:02:49;2.17;;;0.80;;
24681;SDS011;12802;53.390;-2.328;2023-02-04T09:05:15;2.50;;;0.47;;
24681;SDS011;12802;53.390;-2.328;2023-02-04T09:07:40;4.05;;;1.50;;
24681;SDS011;12802;53.390;-2.328;2023-02-04T09:10:06;3.55;;;0.80;;
24681;SDS011;12802;53.390;-2.328;2023-02-04T09:12:32;4.43;;;1.08;;
24681;SDS011;12802;53.390;-2.328;2023-02-04T09:14:58;1.98;;;0.77;;
24681;SDS011;12802;53.390;-2.328;2023-02-04T09:17:24;2.42;;;0.85;;
24681;SDS011;12802;53.390;-2.328;2023-02-04T09:19:49;3.08;;;0.88;;
24681;SDS011;12802;53.390;-2.328;2023-02-04T09:22:15;7.43;;;1.08;;
24681;SDS011;12802;53.390;-2.328;2023-02-04T09:24:41;1.65;;;0.77;;
24681;SDS011;12802;53.390;-2.328;2023-02-04T09:27:07;2.05;;;0.77;;
24681;SDS011;12802;53.390;-2.328;2023-02-04T09:29:32;2.38;;;0.60;;
24681;SDS011;12802;53.390;-2.328;2023-02-04T09:31:58;0.60;;;0.50;;
24681;SDS011;12802;53.390;-2.328;2023-02-04T09:34:24;1.50;;;0.80;;
24681;SDS011;12802;53.390;-2.328;2023-02-04T09:36:50;6.93;;;1.00;;
24681;SDS011;12802;53.390;-2.328;2023-02-04T09:39:15;2.80;;;0.90;;
24681;SDS011;12802;53.390;-2.328;2023-02-04T09:41:41;3.40;;;0.68;;
24681;SDS011;12802;53.390;-2.328;2023-02-04T09:44:18;4.40;;;0.68;;
24681;SDS011;12802;53.390;-2.328;2023-02-04T09:46:51;4.63;;;1.08;;
24681;SDS011;12802;53.390;-2.328;2023-02-04T09:49:20;2.60;;;0.90;;
24681;SDS011;12802;53.390;-2.328;2023-02-04T09:51:46;4.38;;;0.70;;
24681;SDS011;12802;53.390;-2.328;2023-02-04T09:54:16;7.53;;;1.17;;
24681;SDS011;12802;53.390;-2.328;2023-02-04T09:56:44;4.30;;;1.10;;
24681;SDS011;12802;53.390;-2.328;2023-02-04T09:59:11;6.57;;;1.05;;
24681;SDS011;12802;53.390;-2.328;2023-02-04T10:01:46;5.28;;;1.35;;
24681;SDS011;12802;53.390;-2.328;2023-02-04T10:04:19;5.07;;;0.85;;
24681;SDS011;12802;53.390;-2.328;2023-02-04T10:06:46;3.60;;;0.95;;
24681;SDS011;12802;53.390;-2.328;2023-02-04T10:09:13;5.15;;;0.77;;
24681;SDS011;12802;53.390;-2.328;2023-02-04T10:11:40;1.20;;;0.40;;
24681;SDS011;12802;53.390;-2.328;2023-02-04T10:14:14;3.30;;;0.65;;
24681;SDS011;12802;53.390;-2.328;2023-02-04T10:16:44;2.03;;;0.77;;
24681;SDS011;12802;53.390;-2.328;2023-02-04T10:19:18;3.22;;;0.95;;
24681;SDS011;12802;53.390;-2.328;2023-02-04T10:21:44;3.92;;;1.02;;
24681;SDS011;12802;53.390;-2.328;2023-02-04T10:24:12;1.27;;;0.50;;
24681;SDS011;12802;53.390;-2.328;2023-02-04T10:26:40;4.38;;;0.63;;
24681;SDS011;12802;53.390;-2.328;2023-02-04T10:29:07;5.38;;;0.98;;
24681;SDS011;12802;53.390;-2.328;2023-02-04T10:31:42;0.63;;;0.40;;
24681;SDS011;12802;53.390;-2.328;2023-02-04T10:34:16;6.28;;;1.27;;
24681;SDS011;12802;53.390;-2.328;2023-02-04T10:37:17;2.00;;;0.80;;
24681;SDS011;12802;53.390;-2.328;2023-02-04T10:39:44;2.78;;;0.85;;
24681;SDS011;12802;53.390;-2.328;2023-02-04T10:42:23;2.92;;;0.85;;
24681;SDS011;12802;53.390;-2.328;2023-02-04T10:44:51;4.40;;;0.80;;
24681;SDS011;12802;53.390;-2.328;2023-02-04T10:47:19;2.40;;;0.98;;
24681;SDS011;12802;53.390;-2.328;2023-02-04T10:52:16;2.10;;;0.80;;
24681;SDS011;12802;53.390;-2.328;2023-02-04T10:54:45;1.30;;;0.98;;
24681;SDS011;12802;53.390;-2.328;2023-02-04T10:59:49;1.77;;;0.80;;
24681;SDS011;12802;53.390;-2.328;2023-02-04T11:05:11;3.72;;;1.10;;
24681;SDS011;12802;53.390;-2.328;2023-02-04T11:07:42;2.08;;;0.90;;
24681;SDS011;12802;53.390;-2.328;2023-02-04T11:10:11;3.63;;;1.60;;
24681;SDS011;12802;53.390;-2.328;2023-02-04T11:12:45;2.88;;;1.58;;
24681;SDS011;12802;53.390;-2.328;2023-02-04T11:18:10;4.20;;;1.60;;
24681;SDS011;12802;53.390;-2.328;2023-02-04T11:20:37;5.05;;;0.95;;
24681;SDS011;12802;53.390;-2.328;2023-02-04T11:25:49;2.90;;;1.45;;
24681;SDS011;12802;53.390;-2.328;2023-02-04T11:33:44;3.28;;;1.23;;
24681;SDS011;12802;53.390;-2.328;2023-02-04T11:36:11;3.33;;;1.27;;
24681;SDS011;12802;53.390;-2.328;2023-02-04T11:38:39;8.90;;;1.60;;
24681;SDS011;12802;53.390;-2.328;2023-02-04T11:41:26;2.08;;;1.23;;
24681;SDS011;12802;53.390;-2.328;2023-02-04T11:43:53;2.38;;;1.08;;
24681;SDS011;12802;53.390;-2.328;2023-02-04T11:46:20;5.30;;;1.55;;
24681;SDS011;12802;53.390;-2.328;2023-02-04T11:48:54;5.65;;;1.30;;
24681;SDS011;12802;53.390;-2.328;2023-02-04T11:51:30;3.33;;;1.15;;
24681;SDS011;12802;53.390;-2.328;2023-02-04T11:53:57;4.13;;;1.48;;
24681;SDS011;12802;53.390;-2.328;2023-02-04T11:56:26;3.53;;;1.35;;
24681;SDS011;12802;53.390;-2.328;2023-02-04T11:58:54;0.63;;;0.47;;
24681;SDS011;12802;53.390;-2.328;2023-02-04T12:01:22;8.05;;;1.85;;
24681;SDS011;12802;53.390;-2.328;2023-02-04T12:03:50;5.20;;;1.63;;
24681;SDS011;12802;53.390;-2.328;2023-02-04T12:06:23;2.65;;;1.10;;
24681;SDS011;12802;53.390;-2.328;2023-02-04T12:08:51;7.45;;;1.77;;
24681;SDS011;12802;53.390;-2.328;2023-02-04T12:11:28;11.13;;;4.45;;
24681;SDS011;12802;53.390;-2.328;2023-02-04T12:13:58;15.45;;;4.53;;
24681;SDS011;12802;53.390;-2.328;2023-02-04T12:16:49;16.17;;;3.70;;
24681;SDS011;12802;53.390;-2.328;2023-02-04T12:19:20;14.15;;;3.47;;
24681;SDS011;12802;53.390;-2.328;2023-02-04T12:21:46;4.68;;;1.08;;
24681;SDS011;12802;53.390;-2.328;2023-02-04T12:24:12;2.35;;;1.17;;
24681;SDS011;12802;53.390;-2.328;2023-02-04T12:26:38;6.00;;;1.67;;
24681;SDS011;12802;53.390;-2.328;2023-02-04T12:29:04;3.03;;;1.23;;
24681;SDS011;12802;53.390;-2.328;2023-02-04T12:31:30;2.97;;;1.17;;
24681;SDS011;12802;53.390;-2.328;2023-02-04T12:33:57;6.22;;;1.60;;
24681;SDS011;12802;53.390;-2.328;2023-02-04T12:36:23;3.05;;;1.00;;
24681;SDS011;12802;53.390;-2.328;2023-02-04T12:38:52;5.47;;;1.73;;
24681;SDS011;12802;53.390;-2.328;2023-02-04T12:41:18;4.60;;;1.17;;
24681;SDS011;12802;53.390;-2.328;2023-02-04T12:43:44;5.05;;;1.23;;
24681;SDS011;12802;53.390;-2.328;2023-02-04T12:46:10;3.55;;;1.45;;
24681;SDS011;12802;53.390;-2.328;2023-02-04T12:48:36;8.25;;;1.40;;
24681;SDS011;12802;53.390;-2.328;2023-02-04T12:51:05;5.22;;;1.50;;
24681;SDS011;12802;53.390;-2.328;2023-02-04T12:53:31;3.47;;;1.20;;
24681;SDS011;12802;53.390;-2.328;2023-02-04T12:55:57;2.33;;;1.02;;
24681;SDS011;12802;53.390;-2.328;2023-02-04T12:58:23;3.47;;;1.45;;
24681;SDS011;12802;53.390;-2.328;2023-02-04T13:00:49;2.70;;;0.90;;
24681;SDS011;12802;53.390;-2.328;2023-02-04T13:03:14;4.80;;;1.25;;
24681;SDS011;12802;53.390;-2.328;2023-02-04T13:05:40;4.40;;;1.38;;
24681;SDS011;12802;53.390;-2.328;2023-02-04T13:08:06;2.83;;;1.45;;
24681;SDS011;12802;53.390;-2.328;2023-02-04T13:10:32;9.07;;;1.08;;
24681;SDS011;12802;53.390;-2.328;2023-02-04T13:12:58;5.35;;;1.33;;
24681;SDS011;12802;53.390;-2.328;2023-02-04T13:15:25;4.57;;;1.77;;
24681;SDS011;12802;53.390;-2.328;2023-02-04T13:17:51;3.03;;;1.25;;
24681;SDS011;12802;53.390;-2.328;2023-02-04T13:20:17;3.33;;;1.30;;
24681;SDS011;12802;53.390;-2.328;2023-02-04T13:22:43;3.90;;;1.27;;
24681;SDS011;12802;53.390;-2.328;2023-02-04T13:25:09;2.50;;;1.27;;
24681;SDS011;12802;53.390;-2.328;2023-02-04T13:27:36;5.47;;;1.60;;
24681;SDS011;12802;53.390;-2.328;2023-02-04T13:32:32;2.22;;;0.95;;
24681;SDS011;12802;53.390;-2.328;2023-02-04T13:34:57;3.22;;;1.08;;
24681;SDS011;12802;53.390;-2.328;2023-02-04T13:37:23;2.05;;;0.93;;
24681;SDS011;12802;53.390;-2.328;2023-02-04T13:39:49;4.85;;;1.08;;
24681;SDS011;12802;53.390;-2.328;2023-02-04T13:42:15;2.33;;;1.17;;
24681;SDS011;12802;53.390;-2.328;2023-02-04T13:44:40;3.08;;;1.10;;
24681;SDS011;12802;53.390;-2.328;2023-02-04T13:47:06;2.65;;;0.75;;
24681;SDS011;12802;53.390;-2.328;2023-02-04T13:49:32;3.15;;;0.95;;
24681;SDS011;12802;53.390;-2.328;2023-02-04T13:51:58;1.90;;;0.82;;
24681;SDS011;12802;53.390;-2.328;2023-02-04T13:54:24;4.03;;;0.95;;
24681;SDS011;12802;53.390;-2.328;2023-02-04T13:56:49;3.25;;;1.35;;
24681;SDS011;12802;53.390;-2.328;2023-02-04T13:59:15;5.70;;;1.08;;
24681;SDS011;12802;53.390;-2.328;2023-02-04T14:01:41;9.00;;;1.00;;
24681;SDS011;12802;53.390;-2.328;2023-02-04T14:04:07;2.65;;;0.68;;
24681;SDS011;12802;53.390;-2.328;2023-02-04T14:06:33;2.78;;;1.05;;
24681;SDS011;12802;53.390;-2.328;2023-02-04T14:09:02;4.57;;;1.00;;
24681;SDS011;12802;53.390;-2.328;2023-02-04T14:11:29;1.17;;;0.70;;
24681;SDS011;12802;53.390;-2.328;2023-02-04T14:13:55;2.05;;;1.00;;
24681;SDS011;12802;53.390;-2.328;2023-02-04T14:16:21;8.05;;;1.65;;
24681;SDS011;12802;53.390;-2.328;2023-02-04T14:18:47;4.20;;;1.17;;
24681;SDS011;12802;53.390;-2.328;2023-02-04T14:21:12;2.83;;;0.80;;
24681;SDS011;12802;53.390;-2.328;2023-02-04T14:23:38;1.38;;;1.00;;
24681;SDS011;12802;53.390;-2.328;2023-02-04T14:26:04;2.10;;;1.05;;
24681;SDS011;12802;53.390;-2.328;2023-02-04T14:28:29;3.13;;;0.70;;
24681;SDS011;12802;53.390;-2.328;2023-02-04T14:30:55;2.40;;;1.02;;
24681;SDS011;12802;53.390;-2.328;2023-02-04T14:33:21;2.53;;;1.52;;
24681;SDS011;12802;53.390;-2.328;2023-02-04T14:35:47;3.80;;;1.73;;
24681;SDS011;12802;53.390;-2.328;2023-02-04T14:38:13;4.25;;;1.60;;
24681;SDS011;12802;53.390;-2.328;2023-02-04T14:40:42;3.80;;;1.23;;
24681;SDS011;12802;53.390;-2.328;2023-02-04T14:43:09;5.07;;;1.13;;
24681;SDS011;12802;53.390;-2.328;2023-02-04T14:45:38;3.50;;;1.40;;
24681;SDS011;12802;53.390;-2.328;2023-02-04T14:48:05;3.25;;;1.73;;
24681;SDS011;12802;53.390;-2.328;2023-02-04T14:50:31;6.45;;;2.28;;
24681;SDS011;12802;53.390;-2.328;2023-02-04T14:52:57;4.72;;;1.25;;